sensor_id;sensor_type;location;lat;lon;timestamp;pressure;altitude;pressure_sealevel;temperature;humidity
28626;BME280;18905;42.668;23.364;2023-02-13T00:37:15;96852.53;;;1.35;100.00
28626;BME280;18905;42.668;23.364;2023-02-13T00:39:40;96851.66;;;0.92;100.00
28626;BME280;18905;42.668;23.364;2023-02-13T00:42:06;96848.47;;;0.71;100.00
28626;BME280;18905;42.668;23.364;2023-02-13T00:44:31;96851.53;;;1.05;100.00
28626;BME280;18905;42.668;23.364;2023-02-13T00:46:57;96856.66;;;0.76;100.00
28626;BME280;18905;42.668;23.364;2023-02-13T00:49:22;96860.16;;;1.01;100.00
28626;BME280;18905;42.668;23.364;2023-02-13T00:51:48;96855.97;;;1.18;100.00
28626;BME280;18905;42.668;23.364;2023-02-13T00:54:13;96855.56;;;0.90;100.00
28626;BME280;18905;42.668;23.364;2023-02-13T00:56:39;96855.78;;;0.44;100.00
28626;BME280;18905;42.668;23.364;2023-02-13T00:59:04;96858.88;;;0.79;100.00
28626;BME280;18905;42.668;23.364;2023-02-13T01:01:29;96865.66;;;1.06;100.00
28626;BME280;18905;42.668;23.364;2023-02-13T01:03:55;96865.09;;;0.97;100.00
28626;BME280;18905;42.668;23.364;2023-02-13T01:06:20;96860.06;;;1.14;100.00
28626;BME280;18905;42.668;23.364;2023-02-13T01:08:46;96856.44;;;1.33;100.00
28626;BME280;18905;42.668;23.364;2023-02-13T01:11:12;96863.84;;;1.31;100.00
28626;BME280;18905;42.668;23.364;2023-02-13T01:13:37;96865.53;;;1.50;100.00
28626;BME280;18905;42.668;23.364;2023-02-13T01:16:03;96864.06;;;1.54;100.00
28626;BME280;18905;42.668;23.364;2023-02-13T01:18:28;96854.91;;;1.43;100.00
28626;BME280;18905;42.668;23.364;2023-02-13T01:20:58;96859.09;;;1.33;100.00
28626;BME280;18905;42.668;23.364;2023-02-13T01:23:24;96861.09;;;1.37;100.00
28626;BME280;18905;42.668;23.364;2023-02-13T01:25:50;96870.56;;;1.09;100.00
28626;BME280;18905;42.668;23.364;2023-02-13T01:28:16;96869.84;;;1.20;100.00
28626;BME280;18905;42.668;23.364;2023-02-13T01:38:26;96865.72;;;1.24;100.00
28626;BME280;18905;42.668;23.364;2023-02-13T02:12:29;96872.44;;;1.02;100.00
28626;BME280;18905;42.668;23.364;2023-02-13T02:14:58;96866.28;;;1.08;100.00
28626;BME280;18905;42.668;23.364;2023-02-13T02:17:25;96876.88;;;0.83;100.00
28626;BME280;18905;42.668;23.364;2023-02-13T02:33:02;96870.63;;;1.27;100.00
28626;BME280;18905;42.668;23.364;2023-02-13T02:35:38;96868.09;;;0.76;100.00
28626;BME280;18905;42.668;23.364;2023-02-13T02:38:29;96876.22;;;0.88;100.00
28626;BME280;18905;42.668;23.364;2023-02-13T03:06:52;96899.72;;;1.22;100.00
28626;BME280;18905;42.668;23.364;2023-02-13T03:14:29;96899.44;;;1.30;100.00
28626;BME280;18905;42.668;23.364;2023-02-13T03:16:55;96899.00;;;0.71;100.00
28626;BME280;18905;42.668;23.364;2023-02-13T03:40:52;96904.88;;;-0.81;100.00
28626;BME280;18905;42.668;23.364;2023-02-13T03:43:44;96906.31;;;-0.72;100.00
28626;BME280;18905;42.668;23.364;2023-02-13T03:46:12;96904.69;;;-0.73;100.00
28626;BME280;18905;42.668;23.364;2023-02-13T03:48:39;96906.31;;;-0.98;100.00
28626;BME280;18905;42.668;23.364;2023-02-13T04:27:38;96915.69;;;-0.89;100.00
28626;BME280;18905;42.668;23.364;2023-02-13T04:55:55;96924.88;;;-0.98;100.00
28626;BME280;18905;42.668;23.364;2023-02-13T04:58:20;96926.31;;;-0.82;100.00
28626;BME280;18905;42.668;23.364;2023-02-13T05:00:46;96920.78;;;-0.87;100.00
28626;BME280;18905;42.668;23.364;2023-02-13T05:08:21;96940.81;;;3.37;100.00
28626;BME280;18905;42.668;23.364;2023-02-13T05:10:47;96939.97;;;2.77;100.00
28626;BME280;18905;42.668;23.364;2023-02-13T05:13:21;96943.16;;;1.71;100.00
28626;BME280;18905;42.668;23.364;2023-02-13T05:15:47;96939.97;;;1.63;100.00
28626;BME280;18905;42.668;23.364;2023-02-13T05:18:12;96935.69;;;1.31;100.00
28626;BME280;18905;42.668;23.364;2023-02-13T05:20:39;96935.75;;;1.24;100.00
28626;BME280;18905;42.668;23.364;2023-02-13T05:23:04;96937.19;;;1.20;100.00
28626;BME280;18905;42.668;23.364;2023-02-13T05:25:48;96944.19;;;0.27;100.00
28626;BME280;18905;42.668;23.364;2023-02-13T05:28:14;96948.88;;;0.24;100.00
28626;BME280;18905;42.668;23.364;2023-02-13T05:30:58;96948.13;;;0.04;100.00
28626;BME280;18905;42.668;23.364;2023-02-13T05:33:23;96943.19;;;0.01;100.00
28626;BME280;18905;42.668;23.364;2023-02-13T05:35:48;96949.81;;;-0.27;100.00
28626;BME280;18905;42.668;23.364;2023-02-13T05:38:13;96962.44;;;-0.29;100.00
28626;BME280;18905;42.668;23.364;2023-02-13T05:40:39;96953.25;;;-0.27;100.00
28626;BME280;18905;42.668;23.364;2023-02-13T05:43:04;96950.56;;;0.06;100.00
28626;BME280;18905;42.668;23.364;2023-02-13T05:45:30;96953.88;;;-0.25;100.00
28626;BME280;18905;42.668;23.364;2023-02-13T05:47:55;96958.75;;;-0.22;100.00
28626;BME280;18905;42.668;23.364;2023-02-13T05:50:48;96959.19;;;-0.44;100.00
28626;BME280;18905;42.668;23.364;2023-02-13T05:53:13;96957.34;;;-0.44;100.00
28626;BME280;18905;42.668;23.364;2023-02-13T05:55:39;96962.44;;;-0.49;100.00
28626;BME280;18905;42.668;23.364;2023-02-13T05:58:04;96968.19;;;-0.52;100.00
28626;BME280;18905;42.668;23.364;2023-02-13T06:00:29;96972.06;;;-0.48;100.00
28626;BME280;18905;42.668;23.364;2023-02-13T06:02:54;96968.78;;;-0.30;100.00
28626;BME280;18905;42.668;23.364;2023-02-13T06:05:20;96972.66;;;-0.33;100.00
28626;BME280;18905;42.668;23.364;2023-02-13T06:07:45;96971.22;;;-0.68;100.00
28626;BME280;18905;42.668;23.364;2023-02-13T06:10:10;96974.91;;;-0.62;100.00
28626;BME280;18905;42.668;23.364;2023-02-13T06:12:36;96978.16;;;-0.73;100.00
28626;BME280;18905;42.668;23.364;2023-02-13T06:15:02;96974.72;;;-0.54;100.00
28626;BME280;18905;42.668;23.364;2023-02-13T06:17:27;96980.41;;;-0.44;100.00
28626;BME280;18905;42.668;23.364;2023-02-13T06:19:52;96979.19;;;-0.48;100.00
28626;BME280;18905;42.668;23.364;2023-02-13T06:22:18;96984.09;;;-0.45;100.00
28626;BME280;18905;42.668;23.364;2023-02-13T06:24:43;96986.91;;;-0.79;100.00
28626;BME280;18905;42.668;23.364;2023-02-13T06:27:08;96982.84;;;-0.56;100.00
28626;BME280;18905;42.668;23.364;2023-02-13T06:29:33;96977.78;;;-0.38;100.00
28626;BME280;18905;42.668;23.364;2023-02-13T06:31:59;96981.22;;;-0.31;100.00
28626;BME280;18905;42.668;23.364;2023-02-13T06:34:24;96991.06;;;-0.25;100.00
28626;BME280;18905;42.668;23.364;2023-02-13T06:36:49;96992.47;;;-0.09;100.00
28626;BME280;18905;42.668;23.364;2023-02-13T06:39:14;96988.78;;;-0.15;100.00
28626;BME280;18905;42.668;23.364;2023-02-13T06:41:40;96992.47;;;-0.09;100.00
28626;BME280;18905;42.668;23.364;2023-02-13T06:44:05;96991.44;;;-0.02;100.00
28626;BME280;18905;42.668;23.364;2023-02-13T06:46:31;96996.94;;;0.17;100.00
28626;BME280;18905;42.668;23.364;2023-02-13T06:48:57;97003.22;;;0.28;100.00
28626;BME280;18905;42.668;23.364;2023-02-13T06:51:22;96995.44;;;0.33;100.00
28626;BME280;18905;42.668;23.364;2023-02-13T06:53:47;96998.28;;;0.45;100.00
28626;BME280;18905;42.668;23.364;2023-02-13T06:56:12;96997.88;;;0.55;100.00
28626;BME280;18905;42.668;23.364;2023-02-13T06:58:38;96992.91;;;0.65;100.00
28626;BME280;18905;42.668;23.364;2023-02-13T07:01:04;96980.34;;;0.28;100.00
28626;BME280;18905;42.668;23.364;2023-02-13T07:03:29;96985.50;;;0.73;100.00
28626;BME280;18905;42.668;23.364;2023-02-13T07:05:55;96991.16;;;0.96;100.00
28626;BME280;18905;42.668;23.364;2023-02-13T07:08:20;96983.44;;;0.82;100.00
28626;BME280;18905;42.668;23.364;2023-02-13T07:10:46;96987.34;;;1.17;100.00
28626;BME280;18905;42.668;23.364;2023-02-13T07:13:11;96974.06;;;1.48;100.00
28626;BME280;18905;42.668;23.364;2023-02-13T07:15:36;96972.16;;;1.55;100.00
28626;BME280;18905;42.668;23.364;2023-02-13T07:18:02;96983.50;;;1.44;100.00
28626;BME280;18905;42.668;23.364;2023-02-13T07:20:28;96989.72;;;1.31;100.00
28626;BME280;18905;42.668;23.364;2023-02-13T07:22:57;96997.47;;;1.02;100.00
28626;BME280;18905;42.668;23.364;2023-02-13T07:25:22;96989.75;;;1.25;100.00
28626;BME280;18905;42.668;23.364;2023-02-13T07:27:48;96993.03;;;1.27;100.00
28626;BME280;18905;42.668;23.364;2023-02-13T07:30:13;96997.84;;;1.43;100.00
28626;BME280;18905;42.668;23.364;2023-02-13T07:32:38;96986.28;;;1.31;100.00
28626;BME280;18905;42.668;23.364;2023-02-13T07:35:03;96994.81;;;1.39;100.00
28626;BME280;18905;42.668;23.364;2023-02-13T07:37:29;96993.09;;;1.51;100.00
28626;BME280;18905;42.668;23.364;2023-02-13T07:39:55;96992.56;;;1.36;100.00
28626;BME280;18905;42.668;23.364;2023-02-13T07:42:20;96995.44;;;1.35;100.00
28626;BME280;18905;42.668;23.364;2023-02-13T07:44:45;96988.56;;;1.52;100.00
28626;BME280;18905;42.668;23.364;2023-02-13T07:47:11;96992.09;;;1.46;100.00
28626;BME280;18905;42.668;23.364;2023-02-13T07:49:36;96992.22;;;1.57;100.00
28626;BME280;18905;42.668;23.364;2023-02-13T07:52:02;96995.34;;;1.48;100.00
28626;BME280;18905;42.668;23.364;2023-02-13T07:54:27;96985.78;;;1.71;100.00
28626;BME280;18905;42.668;23.364;2023-02-13T07:56:52;96988.56;;;1.52;100.00
28626;BME280;18905;42.668;23.364;2023-02-13T07:59:18;96984.63;;;1.61;100.00
28626;BME280;18905;42.668;23.364;2023-02-13T08:01:43;96989.84;;;1.43;100.00
28626;BME280;18905;42.668;23.364;2023-02-13T08:04:08;96992.59;;;1.30;100.00
28626;BME280;18905;42.668;23.364;2023-02-13T08:06:33;96988.19;;;1.48;100.00
28626;BME280;18905;42.668;23.364;2023-02-13T08:08:59;96982.56;;;1.63;100.00
28626;BME280;18905;42.668;23.364;2023-02-13T08:11:43;96981.81;;;1.49;100.00
28626;BME280;18905;42.668;23.364;2023-02-13T08:14:17;96987.28;;;1.61;100.00
28626;BME280;18905;42.668;23.364;2023-02-13T08:16:43;96982.72;;;1.68;100.00
28626;BME280;18905;42.668;23.364;2023-02-13T08:19:08;96981.94;;;1.61;100.00
28626;BME280;18905;42.668;23.364;2023-02-13T08:21:33;96983.00;;;1.60;100.00
28626;BME280;18905;42.668;23.364;2023-02-13T08:23:59;96979.81;;;1.45;100.00
28626;BME280;18905;42.668;23.364;2023-02-13T08:26:24;96987.22;;;1.36;100.00
28626;BME280;18905;42.668;23.364;2023-02-13T08:28:49;96979.03;;;1.69;100.00
28626;BME280;18905;42.668;23.364;2023-02-13T08:31:15;96986.34;;;1.98;100.00
28626;BME280;18905;42.668;23.364;2023-02-13T08:33:40;96976.91;;;2.02;100.00
28626;BME280;18905;42.668;23.364;2023-02-13T08:36:06;96978.78;;;1.77;100.00
28626;BME280;18905;42.668;23.364;2023-02-13T08:38:31;96983.00;;;2.09;100.00
28626;BME280;18905;42.668;23.364;2023-02-13T08:40:56;96983.59;;;1.86;100.00
28626;BME280;18905;42.668;23.364;2023-02-13T08:43:22;96983.53;;;1.93;100.00
28626;BME280;18905;42.668;23.364;2023-02-13T08:45:47;96980.25;;;1.97;100.00
28626;BME280;18905;42.668;23.364;2023-02-13T08:48:12;96979.88;;;2.12;100.00
28626;BME280;18905;42.668;23.364;2023-02-13T08:50:38;96992.31;;;2.00;100.00
28626;BME280;18905;42.668;23.364;2023-02-13T08:53:03;96984.19;;;2.31;100.00
28626;BME280;18905;42.668;23.364;2023-02-13T08:55:29;96985.31;;;2.41;100.00
28626;BME280;18905;42.668;23.364;2023-02-13T08:57:58;96993.13;;;2.61;100.00
28626;BME280;18905;42.668;23.364;2023-02-13T09:00:23;96989.69;;;2.54;100.00
28626;BME280;18905;42.668;23.364;2023-02-13T09:02:48;96987.78;;;2.79;100.00
28626;BME280;18905;42.668;23.364;2023-02-13T09:05:13;96980.88;;;2.35;100.00
28626;BME280;18905;42.668;23.364;2023-02-13T09:07:39;96984.84;;;2.69;100.00
28626;BME280;18905;42.668;23.364;2023-02-13T09:10:04;96986.72;;;2.44;100.00
28626;BME280;18905;42.668;23.364;2023-02-13T09:12:30;96983.63;;;2.83;100.00
28626;BME280;18905;42.668;23.364;2023-02-13T09:14:55;96988.84;;;2.60;100.00
28626;BME280;18905;42.668;23.364;2023-02-13T09:17:20;96981.16;;;2.99;100.00
28626;BME280;18905;42.668;23.364;2023-02-13T09:19:46;96982.38;;;3.33;100.00
28626;BME280;18905;42.668;23.364;2023-02-13T09:22:11;96983.16;;;3.63;100.00
28626;BME280;18905;42.668;23.364;2023-02-13T09:24:36;96975.56;;;3.48;100.00
28626;BME280;18905;42.668;23.364;2023-02-13T09:27:03;96974.56;;;3.02;100.00
28626;BME280;18905;42.668;23.364;2023-02-13T09:29:28;96976.41;;;3.01;100.00
28626;BME280;18905;42.668;23.364;2023-02-13T09:31:55;96971.72;;;3.15;100.00
28626;BME280;18905;42.668;23.364;2023-02-13T09:34:21;96967.06;;;3.40;100.00
28626;BME280;18905;42.668;23.364;2023-02-13T09:36:50;96968.69;;;3.41;100.00
28626;BME280;18905;42.668;23.364;2023-02-13T09:39:15;96970.25;;;3.19;100.00
28626;BME280;18905;42.668;23.364;2023-02-13T09:41:41;96962.88;;;2.85;100.00
28626;BME280;18905;42.668;23.364;2023-02-13T09:44:15;96964.53;;;3.56;100.00
28626;BME280;18905;42.668;23.364;2023-02-13T09:46:59;96955.19;;;3.88;100.00
28626;BME280;18905;42.668;23.364;2023-02-13T09:49:26;96951.75;;;3.47;100.00
28626;BME280;18905;42.668;23.364;2023-02-13T09:51:54;96955.06;;;3.72;100.00
28626;BME280;18905;42.668;23.364;2023-02-13T09:54:21;96946.78;;;3.50;100.00
28626;BME280;18905;42.668;23.364;2023-02-13T09:57:03;96942.44;;;4.13;100.00
28626;BME280;18905;42.668;23.364;2023-02-13T10:02:00;96949.06;;;4.11;100.00
28626;BME280;18905;42.668;23.364;2023-02-13T10:07:28;96933.97;;;4.28;100.00
28626;BME280;18905;42.668;23.364;2023-02-13T10:09:51;96934.06;;;3.75;100.00
28626;BME280;18905;42.668;23.364;2023-02-13T10:12:21;96929.59;;;4.61;100.00
28626;BME280;18905;42.668;23.364;2023-02-13T10:14:58;96923.41;;;5.56;100.00
28626;BME280;18905;42.668;23.364;2023-02-13T10:17:37;96921.22;;;5.70;100.00
28626;BME280;18905;42.668;23.364;2023-02-13T10:20:06;96919.56;;;6.13;100.00
28626;BME280;18905;42.668;23.364;2023-02-13T10:23:07;96910.06;;;6.65;100.00
28626;BME280;18905;42.668;23.364;2023-02-13T10:25:24;96908.38;;;5.55;100.00
28626;BME280;18905;42.668;23.364;2023-02-13T10:27:55;96904.53;;;4.79;100.00
28626;BME280;18905;42.668;23.364;2023-02-13T10:30:27;96894.22;;;5.88;100.00
28626;BME280;18905;42.668;23.364;2023-02-13T10:33:05;96893.59;;;6.57;99.56
28626;BME280;18905;42.668;23.364;2023-02-13T10:35:48;96887.94;;;6.75;93.35
28626;BME280;18905;42.668;23.364;2023-02-13T10:38:15;96890.97;;;6.62;94.05
28626;BME280;18905;42.668;23.364;2023-02-13T10:43:27;96884.25;;;6.59;92.40
28626;BME280;18905;42.668;23.364;2023-02-13T10:56:03;96866.56;;;8.32;76.72
28626;BME280;18905;42.668;23.364;2023-02-13T11:01:18;96858.34;;;8.17;72.95
28626;BME280;18905;42.668;23.364;2023-02-13T11:03:45;96847.94;;;7.58;74.30
28626;BME280;18905;42.668;23.364;2023-02-13T11:06:13;96845.53;;;7.03;76.43
28626;BME280;18905;42.668;23.364;2023-02-13T11:08:40;96852.13;;;7.44;76.13
28626;BME280;18905;42.668;23.364;2023-02-13T11:14:00;96837.41;;;7.88;74.66
28626;BME280;18905;42.668;23.364;2023-02-13T11:16:36;96829.16;;;8.41;70.20
28626;BME280;18905;42.668;23.364;2023-02-13T11:19:02;96834.44;;;8.77;67.09
28626;BME280;18905;42.668;23.364;2023-02-13T11:21:32;96822.34;;;7.50;70.61
28626;BME280;18905;42.668;23.364;2023-02-13T11:23:59;96811.38;;;7.25;73.12
28626;BME280;18905;42.668;23.364;2023-02-13T11:26:34;96812.22;;;7.99;73.37
28626;BME280;18905;42.668;23.364;2023-02-13T11:29:00;96811.31;;;8.25;69.58
28626;BME280;18905;42.668;23.364;2023-02-13T11:31:34;96804.97;;;8.04;71.19
28626;BME280;18905;42.668;23.364;2023-02-13T11:36:44;96796.47;;;7.44;70.16
28626;BME280;18905;42.668;23.364;2023-02-13T11:39:19;96787.09;;;8.25;70.48
28626;BME280;18905;42.668;23.364;2023-02-13T11:41:46;96784.41;;;8.30;69.02
28626;BME280;18905;42.668;23.364;2023-02-13T11:44:19;96777.00;;;8.57;69.90
28626;BME280;18905;42.668;23.364;2023-02-13T11:46:46;96773.38;;;8.26;68.67
28626;BME280;18905;42.668;23.364;2023-02-13T11:51:44;96756.38;;;8.21;66.90
28626;BME280;18905;42.668;23.364;2023-02-13T11:54:43;96752.47;;;8.43;64.83
28626;BME280;18905;42.668;23.364;2023-02-13T11:57:02;96747.97;;;8.12;64.36
28626;BME280;18905;42.668;23.364;2023-02-13T11:59:47;96731.75;;;8.49;64.41
28626;BME280;18905;42.668;23.364;2023-02-13T12:04:51;96740.47;;;8.91;63.64
28626;BME280;18905;42.668;23.364;2023-02-13T12:07:22;96732.41;;;9.31;60.83
28626;BME280;18905;42.668;23.364;2023-02-13T12:12:30;96722.56;;;7.42;61.33
28626;BME280;18905;42.668;23.364;2023-02-13T12:14:57;96731.50;;;7.52;65.19
28626;BME280;18905;42.668;23.364;2023-02-13T12:17:25;96724.75;;;7.91;63.38
28626;BME280;18905;42.668;23.364;2023-02-13T12:19:52;96718.25;;;7.82;62.49
28626;BME280;18905;42.668;23.364;2023-02-13T12:48:07;96693.81;;;8.60;56.44
28626;BME280;18905;42.668;23.364;2023-02-13T12:50:37;96679.84;;;7.97;56.05
28626;BME280;18905;42.668;23.364;2023-02-13T12:53:15;96681.34;;;7.68;56.73
28626;BME280;18905;42.668;23.364;2023-02-13T12:55:59;96687.16;;;7.55;57.76
28626;BME280;18905;42.668;23.364;2023-02-13T13:14:15;96662.88;;;8.93;54.03
28626;BME280;18905;42.668;23.364;2023-02-13T13:22:13;96665.75;;;9.71;52.46
28626;BME280;18905;42.668;23.364;2023-02-13T13:24:46;96653.94;;;9.32;52.81
28626;BME280;18905;42.668;23.364;2023-02-13T13:27:19;96652.38;;;9.06;53.31
28626;BME280;18905;42.668;23.364;2023-02-13T13:29:47;96650.47;;;8.97;53.49
28626;BME280;18905;42.668;23.364;2023-02-13T13:32:16;96651.31;;;8.92;53.86
28626;BME280;18905;42.668;23.364;2023-02-13T13:34:43;96653.16;;;9.17;53.44
28626;BME280;18905;42.668;23.364;2023-02-13T13:42:17;96627.00;;;8.37;55.22
28626;BME280;18905;42.668;23.364;2023-02-13T13:49:57;96637.53;;;8.94;54.14
28626;BME280;18905;42.668;23.364;2023-02-13T13:52:27;96637.22;;;8.40;54.69
28626;BME280;18905;42.668;23.364;2023-02-13T13:54:54;96639.72;;;8.67;54.90
28626;BME280;18905;42.668;23.364;2023-02-13T14:04:44;96639.94;;;8.45;55.76
28626;BME280;18905;42.668;23.364;2023-02-13T14:07:24;96640.50;;;8.52;55.84
28626;BME280;18905;42.668;23.364;2023-02-13T14:09:49;96642.78;;;8.09;56.44
28626;BME280;18905;42.668;23.364;2023-02-13T14:14:50;96630.09;;;7.99;57.69
28626;BME280;18905;42.668;23.364;2023-02-13T14:17:46;96626.59;;;7.94;57.70
28626;BME280;18905;42.668;23.364;2023-02-13T14:20:01;96617.34;;;7.75;58.13
28626;BME280;18905;42.668;23.364;2023-02-13T14:22:31;96618.69;;;7.72;57.96
28626;BME280;18905;42.668;23.364;2023-02-13T14:25:05;96618.44;;;7.79;57.80
28626;BME280;18905;42.668;23.364;2023-02-13T14:27:32;96617.72;;;7.98;57.29
28626;BME280;18905;42.668;23.364;2023-02-13T14:29:58;96605.69;;;8.21;57.16
28626;BME280;18905;42.668;23.364;2023-02-13T14:32:27;96608.06;;;8.12;56.95
28626;BME280;18905;42.668;23.364;2023-02-13T14:34:55;96602.47;;;8.24;57.34
28626;BME280;18905;42.668;23.364;2023-02-13T14:37:27;96610.41;;;7.84;58.16
28626;BME280;18905;42.668;23.364;2023-02-13T14:40:08;96608.88;;;8.03;58.04
28626;BME280;18905;42.668;23.364;2023-02-13T14:42:34;96616.38;;;8.01;58.26
28626;BME280;18905;42.668;23.364;2023-02-13T14:45:00;96602.16;;;8.00;58.67
28626;BME280;18905;42.668;23.364;2023-02-13T14:47:32;96602.88;;;7.81;58.31
28626;BME280;18905;42.668;23.364;2023-02-13T14:49:59;96607.41;;;7.70;59.12
28626;BME280;18905;42.668;23.364;2023-02-13T14:52:31;96600.66;;;7.63;59.64
28626;BME280;18905;42.668;23.364;2023-02-13T14:55:00;96599.16;;;7.97;59.60
28626;BME280;18905;42.668;23.364;2023-02-13T14:57:31;96592.19;;;8.06;58.89
28626;BME280;18905;42.668;23.364;2023-02-13T15:00:00;96594.78;;;7.71;59.71
28626;BME280;18905;42.668;23.364;2023-02-13T15:02:34;96598.72;;;7.58;59.95
28626;BME280;18905;42.668;23.364;2023-02-13T15:05:02;96609.41;;;7.38;61.22
28626;BME280;18905;42.668;23.364;2023-02-13T15:07:32;96601.47;;;7.12;62.37
28626;BME280;18905;42.668;23.364;2023-02-13T15:09:59;96604.75;;;7.24;62.28
28626;BME280;18905;42.668;23.364;2023-02-13T15:12:35;96599.91;;;7.21;62.07
28626;BME280;18905;42.668;23.364;2023-02-13T15:15:02;96597.09;;;7.06;63.12
28626;BME280;18905;42.668;23.364;2023-02-13T15:17:41;96599.06;;;7.15;62.93
28626;BME280;18905;42.668;23.364;2023-02-13T15:20:17;96606.59;;;7.18;62.96
28626;BME280;18905;42.668;23.364;2023-02-13T15:22:45;96616.09;;;6.94;63.09
28626;BME280;18905;42.668;23.364;2023-02-13T15:25:21;96613.00;;;6.76;64.39
28626;BME280;18905;42.668;23.364;2023-02-13T15:27:50;96608.16;;;6.73;64.85
28626;BME280;18905;42.668;23.364;2023-02-13T15:32:43;96612.88;;;6.92;63.94
28626;BME280;18905;42.668;23.364;2023-02-13T15:35:28;96613.16;;;6.33;65.79
28626;BME280;18905;42.668;23.364;2023-02-13T15:37:55;96611.25;;;6.02;68.12
28626;BME280;18905;42.668;23.364;2023-02-13T15:40:22;96609.22;;;6.40;67.75
28626;BME280;18905;42.668;23.364;2023-02-13T15:42:48;96614.97;;;6.22;67.85
28626;BME280;18905;42.668;23.364;2023-02-13T15:45:14;96617.94;;;6.26;68.84
28626;BME280;18905;42.668;23.364;2023-02-13T15:47:41;96618.81;;;6.31;68.81
28626;BME280;18905;42.668;23.364;2023-02-13T15:50:17;96618.47;;;6.28;68.68
28626;BME280;18905;42.668;23.364;2023-02-13T15:52:43;96615.34;;;5.66;71.62
28626;BME280;18905;42.668;23.364;2023-02-13T15:55:31;96618.88;;;5.67;72.76
28626;BME280;18905;42.668;23.364;2023-02-13T15:57:56;96621.06;;;5.70;73.96
28626;BME280;18905;42.668;23.364;2023-02-13T16:00:40;96619.28;;;5.59;74.25
28626;BME280;18905;42.668;23.364;2023-02-13T16:03:07;96622.72;;;5.76;73.19
28626;BME280;18905;42.668;23.364;2023-02-13T16:05:38;96615.59;;;5.65;73.79
28626;BME280;18905;42.668;23.364;2023-02-13T16:08:27;96617.09;;;5.34;73.93
28626;BME280;18905;42.668;23.364;2023-02-13T16:10:50;96621.66;;;5.34;75.16
28626;BME280;18905;42.668;23.364;2023-02-13T16:13:32;96620.53;;;5.30;75.53
28626;BME280;18905;42.668;23.364;2023-02-13T16:15:58;96627.47;;;5.09;76.01
28626;BME280;18905;42.668;23.364;2023-02-13T16:18:24;96611.00;;;5.17;76.46
28626;BME280;18905;42.668;23.364;2023-02-13T16:20:53;96623.06;;;5.20;78.32
28626;BME280;18905;42.668;23.364;2023-02-13T16:23:19;96621.88;;;5.11;78.89
28626;BME280;18905;42.668;23.364;2023-02-13T16:25:45;96634.28;;;5.17;79.50
28626;BME280;18905;42.668;23.364;2023-02-13T16:28:18;96639.88;;;5.15;79.46
28626;BME280;18905;42.668;23.364;2023-02-13T16:30:45;96635.75;;;4.91;80.68
28626;BME280;18905;42.668;23.364;2023-02-13T16:35:43;96634.94;;;4.91;82.68
28626;BME280;18905;42.668;23.364;2023-02-13T16:40:54;96632.69;;;4.83;85.20
28626;BME280;18905;42.668;23.364;2023-02-13T16:51:08;96641.22;;;4.63;88.94
28626;BME280;18905;42.668;23.364;2023-02-13T16:53:34;96641.59;;;4.55;90.52
28626;BME280;18905;42.668;23.364;2023-02-13T16:56:00;96635.72;;;4.25;92.43
28626;BME280;18905;42.668;23.364;2023-02-13T16:58:25;96631.66;;;4.23;93.46
28626;BME280;18905;42.668;23.364;2023-02-13T17:00:51;96633.06;;;4.25;94.68
28626;BME280;18905;42.668;23.364;2023-02-13T17:03:17;96628.66;;;4.03;96.27
28626;BME280;18905;42.668;23.364;2023-02-13T17:05:42;96630.56;;;4.19;96.40
28626;BME280;18905;42.668;23.364;2023-02-13T17:08:07;96627.28;;;4.17;95.13
28626;BME280;18905;42.668;23.364;2023-02-13T17:10:34;96634.41;;;4.11;95.46
28626;BME280;18905;42.668;23.364;2023-02-13T17:13:10;96627.59;;;4.04;98.36
28626;BME280;18905;42.668;23.364;2023-02-13T17:15:40;96632.56;;;3.84;100.00
28626;BME280;18905;42.668;23.364;2023-02-13T17:18:06;96638.28;;;4.04;99.16
28626;BME280;18905;42.668;23.364;2023-02-13T17:20:32;96636.88;;;3.73;100.00
28626;BME280;18905;42.668;23.364;2023-02-13T17:22:59;96641.00;;;3.92;99.63
28626;BME280;18905;42.668;23.364;2023-02-13T17:25:26;96637.03;;;3.95;99.45
28626;BME280;18905;42.668;23.364;2023-02-13T17:27:59;96630.34;;;3.81;99.26
28626;BME280;18905;42.668;23.364;2023-02-13T17:30:31;96631.09;;;3.76;100.00
28626;BME280;18905;42.668;23.364;2023-02-13T17:33:01;96639.06;;;3.88;99.83
28626;BME280;18905;42.668;23.364;2023-02-13T17:35:27;96626.66;;;3.70;100.00
28626;BME280;18905;42.668;23.364;2023-02-13T17:37:52;96634.63;;;3.82;100.00
28626;BME280;18905;42.668;23.364;2023-02-13T17:40:18;96623.88;;;3.77;99.68
28626;BME280;18905;42.668;23.364;2023-02-13T17:42:45;96628.66;;;3.75;100.00
28626;BME280;18905;42.668;23.364;2023-02-13T17:45:12;96619.00;;;3.46;100.00
28626;BME280;18905;42.668;23.364;2023-02-13T17:47:38;96632.31;;;3.57;100.00
28626;BME280;18905;42.668;23.364;2023-02-13T17:50:04;96624.69;;;3.38;100.00
28626;BME280;18905;42.668;23.364;2023-02-13T17:52:29;96626.31;;;3.39;100.00
28626;BME280;18905;42.668;23.364;2023-02-13T17:54:55;96626.31;;;3.39;100.00
28626;BME280;18905;42.668;23.364;2023-02-13T17:57:20;96618.75;;;3.36;100.00
28626;BME280;18905;42.668;23.364;2023-02-13T17:59:45;96618.09;;;3.29;100.00
28626;BME280;18905;42.668;23.364;2023-02-13T18:02:11;96618.22;;;3.22;100.00
28626;BME280;18905;42.668;23.364;2023-02-13T18:04:36;96614.50;;;3.23;100.00
28626;BME280;18905;42.668;23.364;2023-02-13T18:07:02;96617.41;;;2.99;100.00
28626;BME280;18905;42.668;23.364;2023-02-13T18:09:30;96621.72;;;3.23;100.00
28626;BME280;18905;42.668;23.364;2023-02-13T18:11:55;96612.53;;;3.19;100.00
28626;BME280;18905;42.668;23.364;2023-02-13T18:14:20;96612.19;;;3.15;100.00
28626;BME280;18905;42.668;23.364;2023-02-13T18:16:46;96610.00;;;3.01;100.00
28626;BME280;18905;42.668;23.364;2023-02-13T18:19:11;96615.31;;;3.24;100.00
28626;BME280;18905;42.668;23.364;2023-02-13T18:21:38;96620.91;;;2.99;100.00
28626;BME280;18905;42.668;23.364;2023-02-13T18:24:03;96615.91;;;3.14;100.00